Terminal Aerodrome Forecast
Issued by NWS Missoula, MT

Home | Current Version | Previous Version | Text Only | Print | Product List | Glossary On
Versions: 1 2 3 4 5 6 7 8 9 10 11 12 13
986
FTUS45 KMSO 232355 AAA
TAFMSO
TAF AMD
KMSO 232355Z 2400/2418 36006KT P6SM SKC
     FM240800 05004KT P6SM SKC=

USA.gov is the U.S. government's official web portal to all federal, state and local government web resources and services.